sensor_id;sensor_type;location;lat;lon;timestamp;pressure;altitude;pressure_sealevel;temperature;humidity
77227;BME280;66234;47.642;19.144;2023-08-20T00:01:27;100626.47;;;20.91;95.16
77227;BME280;66234;47.642;19.144;2023-08-20T00:04:30;100629.19;;;20.91;95.75
77227;BME280;66234;47.642;19.144;2023-08-20T00:07:35;100632.41;;;20.88;95.39
77227;BME280;66234;47.642;19.144;2023-08-20T00:10:38;100630.78;;;20.87;96.04
77227;BME280;66234;47.642;19.144;2023-08-20T00:13:41;100630.75;;;20.82;96.10
77227;BME280;66234;47.642;19.144;2023-08-20T00:16:44;100624.22;;;20.78;96.97
77227;BME280;66234;47.642;19.144;2023-08-20T00:19:47;100618.50;;;20.75;97.14
77227;BME280;66234;47.642;19.144;2023-08-20T00:22:51;100616.00;;;20.68;98.00
77227;BME280;66234;47.642;19.144;2023-08-20T00:25:53;100626.63;;;20.65;97.55
77227;BME280;66234;47.642;19.144;2023-08-20T00:28:56;100628.81;;;20.68;98.12
77227;BME280;66234;47.642;19.144;2023-08-20T00:31:59;100623.59;;;20.61;98.53
77227;BME280;66234;47.642;19.144;2023-08-20T00:35:02;100630.91;;;20.56;98.55
77227;BME280;66234;47.642;19.144;2023-08-20T00:38:11;100624.09;;;20.53;99.01
77227;BME280;66234;47.642;19.144;2023-08-20T00:41:13;100626.50;;;20.50;99.04
77227;BME280;66234;47.642;19.144;2023-08-20T00:44:16;100617.25;;;20.46;98.92
77227;BME280;66234;47.642;19.144;2023-08-20T00:47:18;100620.22;;;20.44;99.19
77227;BME280;66234;47.642;19.144;2023-08-20T00:50:22;100614.50;;;20.41;99.81
77227;BME280;66234;47.642;19.144;2023-08-20T00:53:24;100620.53;;;20.48;99.25
77227;BME280;66234;47.642;19.144;2023-08-20T00:56:30;100621.06;;;20.45;99.60
77227;BME280;66234;47.642;19.144;2023-08-20T00:59:33;100628.69;;;20.48;99.66
77227;BME280;66234;47.642;19.144;2023-08-20T01:02:37;100627.56;;;20.39;99.93
77227;BME280;66234;47.642;19.144;2023-08-20T01:05:48;100630.53;;;20.37;100.00
77227;BME280;66234;47.642;19.144;2023-08-20T01:08:57;100635.13;;;20.37;98.39
77227;BME280;66234;47.642;19.144;2023-08-20T01:12:02;100632.41;;;20.37;98.84
77227;BME280;66234;47.642;19.144;2023-08-20T01:15:06;100635.69;;;20.39;98.79
77227;BME280;66234;47.642;19.144;2023-08-20T01:18:11;100636.44;;;20.34;99.14
77227;BME280;66234;47.642;19.144;2023-08-20T01:24:59;100630.13;;;20.60;95.45
77227;BME280;66234;47.642;19.144;2023-08-20T01:31:25;100630.66;;;20.62;95.21
77227;BME280;66234;47.642;19.144;2023-08-20T01:34:29;100626.84;;;20.58;95.37
77227;BME280;66234;47.642;19.144;2023-08-20T01:37:31;100631.97;;;20.55;95.80
77227;BME280;66234;47.642;19.144;2023-08-20T01:40:34;100626.00;;;20.58;95.23
77227;BME280;66234;47.642;19.144;2023-08-20T01:43:37;100633.06;;;20.54;95.76
77227;BME280;66234;47.642;19.144;2023-08-20T01:46:40;100632.19;;;20.43;96.71
77227;BME280;66234;47.642;19.144;2023-08-20T01:49:42;100630.53;;;20.42;96.86
77227;BME280;66234;47.642;19.144;2023-08-20T01:52:45;100632.97;;;20.39;96.81
77227;BME280;66234;47.642;19.144;2023-08-20T01:55:48;100637.38;;;20.50;96.50
77227;BME280;66234;47.642;19.144;2023-08-20T01:58:50;100636.63;;;20.54;95.88
77227;BME280;66234;47.642;19.144;2023-08-20T02:01:53;100634.44;;;20.56;95.57
77227;BME280;66234;47.642;19.144;2023-08-20T02:04:56;100626.28;;;20.56;95.49
77227;BME280;66234;47.642;19.144;2023-08-20T02:07:58;100634.13;;;20.53;95.85
77227;BME280;66234;47.642;19.144;2023-08-20T02:11:04;100625.97;;;20.48;96.50
77227;BME280;66234;47.642;19.144;2023-08-20T02:14:07;100628.88;;;20.36;97.64
77227;BME280;66234;47.642;19.144;2023-08-20T02:17:11;100626.91;;;20.27;98.56
77227;BME280;66234;47.642;19.144;2023-08-20T02:20:14;100629.03;;;20.20;99.14
77227;BME280;66234;47.642;19.144;2023-08-20T02:23:17;100633.38;;;20.21;98.76
77227;BME280;66234;47.642;19.144;2023-08-20T02:26:19;100635.31;;;20.25;98.14
77227;BME280;66234;47.642;19.144;2023-08-20T02:29:22;100632.28;;;20.17;98.74
77227;BME280;66234;47.642;19.144;2023-08-20T02:32:24;100634.09;;;20.11;99.44
77227;BME280;66234;47.642;19.144;2023-08-20T02:35:27;100632.38;;;20.00;100.00
77227;BME280;66234;47.642;19.144;2023-08-20T02:38:30;100634.19;;;19.90;100.00
77227;BME280;66234;47.642;19.144;2023-08-20T02:41:33;100638.50;;;19.86;100.00
77227;BME280;66234;47.642;19.144;2023-08-20T02:44:37;100641.78;;;19.88;100.00
77227;BME280;66234;47.642;19.144;2023-08-20T02:47:39;100637.19;;;19.93;100.00
77227;BME280;66234;47.642;19.144;2023-08-20T02:50:42;100636.94;;;19.95;100.00
77227;BME280;66234;47.642;19.144;2023-08-20T02:53:44;100626.34;;;19.93;100.00
77227;BME280;66234;47.642;19.144;2023-08-20T02:56:48;100633.63;;;19.88;100.00
77227;BME280;66234;47.642;19.144;2023-08-20T02:59:50;100633.59;;;19.83;100.00
77227;BME280;66234;47.642;19.144;2023-08-20T03:02:53;100630.56;;;19.79;100.00
77227;BME280;66234;47.642;19.144;2023-08-20T03:05:55;100636.56;;;19.81;100.00
77227;BME280;66234;47.642;19.144;2023-08-20T03:08:58;100633.84;;;19.81;100.00
77227;BME280;66234;47.642;19.144;2023-08-20T03:12:01;100642.00;;;19.81;100.00
77227;BME280;66234;47.642;19.144;2023-08-20T03:15:04;100641.69;;;19.78;100.00
77227;BME280;66234;47.642;19.144;2023-08-20T03:18:07;100639.78;;;19.78;100.00
77227;BME280;66234;47.642;19.144;2023-08-20T03:21:10;100644.31;;;19.68;100.00
77227;BME280;66234;47.642;19.144;2023-08-20T03:24:13;100636.44;;;19.66;100.00
77227;BME280;66234;47.642;19.144;2023-08-20T03:27:16;100636.75;;;19.75;100.00
77227;BME280;66234;47.642;19.144;2023-08-20T03:30:19;100645.47;;;19.77;100.00
77227;BME280;66234;47.642;19.144;2023-08-20T03:33:21;100644.91;;;19.75;100.00
77227;BME280;66234;47.642;19.144;2023-08-20T03:36:24;100649.00;;;19.77;100.00
77227;BME280;66234;47.642;19.144;2023-08-20T03:39:26;100653.69;;;19.87;99.49
77227;BME280;66234;47.642;19.144;2023-08-20T03:42:29;100654.53;;;19.87;99.26
77227;BME280;66234;47.642;19.144;2023-08-20T03:45:31;100652.41;;;19.94;98.45
77227;BME280;66234;47.642;19.144;2023-08-20T03:48:34;100651.03;;;19.92;98.53
77227;BME280;66234;47.642;19.144;2023-08-20T03:51:37;100663.00;;;19.96;98.17
77227;BME280;66234;47.642;19.144;2023-08-20T03:54:39;100659.75;;;19.99;97.70
77227;BME280;66234;47.642;19.144;2023-08-20T03:57:42;100656.72;;;19.90;98.82
77227;BME280;66234;47.642;19.144;2023-08-20T04:00:44;100663.81;;;19.96;98.04
77227;BME280;66234;47.642;19.144;2023-08-20T04:03:47;100664.03;;;19.90;98.64
77227;BME280;66234;47.642;19.144;2023-08-20T04:06:50;100665.19;;;19.94;98.08
77227;BME280;66234;47.642;19.144;2023-08-20T04:09:53;100666.84;;;20.00;97.85
77227;BME280;66234;47.642;19.144;2023-08-20T04:12:55;100665.50;;;20.02;97.59
77227;BME280;66234;47.642;19.144;2023-08-20T04:15:58;100665.19;;;19.99;97.85
77227;BME280;66234;47.642;19.144;2023-08-20T04:19:01;100671.19;;;20.01;98.26
77227;BME280;66234;47.642;19.144;2023-08-20T04:22:04;100671.44;;;19.99;97.91
77227;BME280;66234;47.642;19.144;2023-08-20T04:25:06;100667.16;;;20.03;98.05
77227;BME280;66234;47.642;19.144;2023-08-20T04:28:11;100664.41;;;19.98;98.07
77227;BME280;66234;47.642;19.144;2023-08-20T04:31:14;100671.19;;;20.01;99.38
77227;BME280;66234;47.642;19.144;2023-08-20T04:34:23;100667.19;;;20.08;99.25
77227;BME280;66234;47.642;19.144;2023-08-20T04:37:28;100669.63;;;20.10;99.45
77227;BME280;66234;47.642;19.144;2023-08-20T04:40:32;100669.97;;;20.13;99.66
77227;BME280;66234;47.642;19.144;2023-08-20T04:43:34;100679.00;;;20.19;99.58
77227;BME280;66234;47.642;19.144;2023-08-20T04:46:37;100686.66;;;20.27;98.85
77227;BME280;66234;47.642;19.144;2023-08-20T04:49:40;100686.00;;;20.46;97.68
77227;BME280;66234;47.642;19.144;2023-08-20T04:52:42;100685.50;;;20.54;97.68
77227;BME280;66234;47.642;19.144;2023-08-20T04:55:45;100691.22;;;20.58;97.61
77227;BME280;66234;47.642;19.144;2023-08-20T04:58:48;100686.91;;;20.62;97.28
77227;BME280;66234;47.642;19.144;2023-08-20T05:02:10;100696.00;;;20.77;95.14
77227;BME280;66234;47.642;19.144;2023-08-20T05:05:19;100696.88;;;20.93;94.09
77227;BME280;66234;47.642;19.144;2023-08-20T05:08:24;100697.75;;;20.98;93.47
77227;BME280;66234;47.642;19.144;2023-08-20T05:11:26;100698.06;;;21.07;93.14
77227;BME280;66234;47.642;19.144;2023-08-20T05:14:30;100693.19;;;21.09;92.49
77227;BME280;66234;47.642;19.144;2023-08-20T05:17:33;100703.56;;;21.17;91.92
77227;BME280;66234;47.642;19.144;2023-08-20T05:20:37;100697.88;;;21.24;92.02
77227;BME280;66234;47.642;19.144;2023-08-20T05:23:40;100691.38;;;21.30;91.85
77227;BME280;66234;47.642;19.144;2023-08-20T05:26:43;100698.19;;;21.37;91.29
77227;BME280;66234;47.642;19.144;2023-08-20T05:29:46;100695.25;;;21.49;90.38
77227;BME280;66234;47.642;19.144;2023-08-20T05:32:49;100695.53;;;21.57;89.09
77227;BME280;66234;47.642;19.144;2023-08-20T05:35:52;100695.00;;;21.60;88.95
77227;BME280;66234;47.642;19.144;2023-08-20T05:38:56;100707.56;;;21.71;87.89
77227;BME280;66234;47.642;19.144;2023-08-20T05:41:59;100714.13;;;21.80;88.07
77227;BME280;66234;47.642;19.144;2023-08-20T05:45:02;100710.59;;;21.85;87.84
77227;BME280;66234;47.642;19.144;2023-08-20T05:48:05;100707.63;;;21.96;86.07
77227;BME280;66234;47.642;19.144;2023-08-20T05:51:08;100713.59;;;21.98;86.03
77227;BME280;66234;47.642;19.144;2023-08-20T05:54:12;100705.72;;;22.02;86.25
77227;BME280;66234;47.642;19.144;2023-08-20T05:57:15;100707.66;;;22.16;85.39
77227;BME280;66234;47.642;19.144;2023-08-20T06:00:19;100709.84;;;22.24;85.12
77227;BME280;66234;47.642;19.144;2023-08-20T06:03:22;100715.81;;;22.31;85.53
77227;BME280;66234;47.642;19.144;2023-08-20T06:06:25;100715.56;;;22.43;85.37
77227;BME280;66234;47.642;19.144;2023-08-20T06:09:28;100713.91;;;22.47;84.86
77227;BME280;66234;47.642;19.144;2023-08-20T06:12:31;100720.19;;;22.62;83.78
77227;BME280;66234;47.642;19.144;2023-08-20T06:15:34;100720.47;;;22.66;83.58
77227;BME280;66234;47.642;19.144;2023-08-20T06:18:37;100716.38;;;22.68;83.28
77227;BME280;66234;47.642;19.144;2023-08-20T06:21:40;100722.59;;;22.89;83.18
77227;BME280;66234;47.642;19.144;2023-08-20T06:24:42;100725.28;;;22.99;82.76
77227;BME280;66234;47.642;19.144;2023-08-20T06:27:45;100727.19;;;23.04;82.60
77227;BME280;66234;47.642;19.144;2023-08-20T06:30:48;100731.28;;;23.11;82.44
77227;BME280;66234;47.642;19.144;2023-08-20T06:33:50;100729.88;;;23.19;82.27
77227;BME280;66234;47.642;19.144;2023-08-20T06:36:53;100718.97;;;23.19;82.08
77227;BME280;66234;47.642;19.144;2023-08-20T06:39:55;100724.66;;;23.22;80.63
77227;BME280;66234;47.642;19.144;2023-08-20T06:42:58;100726.63;;;23.17;81.71
77227;BME280;66234;47.642;19.144;2023-08-20T06:46:00;100720.88;;;23.23;81.92
77227;BME280;66234;47.642;19.144;2023-08-20T06:49:03;100724.41;;;23.34;81.28
77227;BME280;66234;47.642;19.144;2023-08-20T06:52:06;100724.09;;;23.40;81.05
77227;BME280;66234;47.642;19.144;2023-08-20T06:55:08;100722.91;;;23.56;80.08
77227;BME280;66234;47.642;19.144;2023-08-20T06:58:11;100724.13;;;23.84;79.52
77227;BME280;66234;47.642;19.144;2023-08-20T07:01:13;100714.47;;;24.01;78.92
77227;BME280;66234;47.642;19.144;2023-08-20T07:04:16;100725.16;;;23.98;78.81
77227;BME280;66234;47.642;19.144;2023-08-20T07:07:18;100730.56;;;24.08;78.83
77227;BME280;66234;47.642;19.144;2023-08-20T07:10:21;100722.03;;;24.14;77.45
77227;BME280;66234;47.642;19.144;2023-08-20T07:13:23;100722.53;;;24.21;76.65
77227;BME280;66234;47.642;19.144;2023-08-20T07:16:26;100726.53;;;24.34;76.16
77227;BME280;66234;47.642;19.144;2023-08-20T07:19:29;100714.97;;;24.42;76.18
77227;BME280;66234;47.642;19.144;2023-08-20T07:22:31;100723.09;;;24.52;75.54
77227;BME280;66234;47.642;19.144;2023-08-20T07:25:40;100727.34;;;24.68;75.33
77227;BME280;66234;47.642;19.144;2023-08-20T07:28:43;100727.38;;;24.92;75.52
77227;BME280;66234;47.642;19.144;2023-08-20T07:32:01;100726.91;;;25.08;73.47
77227;BME280;66234;47.642;19.144;2023-08-20T07:35:05;100726.03;;;25.13;72.84
77227;BME280;66234;47.642;19.144;2023-08-20T07:38:12;100732.22;;;25.23;73.41
77227;BME280;66234;47.642;19.144;2023-08-20T07:41:15;100728.28;;;25.34;73.76
77227;BME280;66234;47.642;19.144;2023-08-20T07:44:18;100728.97;;;25.45;73.24
77227;BME280;66234;47.642;19.144;2023-08-20T07:47:20;100723.69;;;25.72;73.17
77227;BME280;66234;47.642;19.144;2023-08-20T07:50:23;100727.16;;;25.77;73.28
77227;BME280;66234;47.642;19.144;2023-08-20T07:53:26;100729.47;;;25.89;72.96
77227;BME280;66234;47.642;19.144;2023-08-20T07:56:28;100726.75;;;26.08;68.84
77227;BME280;66234;47.642;19.144;2023-08-20T07:59:31;100729.63;;;26.16;69.47
77227;BME280;66234;47.642;19.144;2023-08-20T08:02:34;100725.09;;;26.25;69.65
77227;BME280;66234;47.642;19.144;2023-08-20T08:05:36;100733.22;;;26.30;69.94
77227;BME280;66234;47.642;19.144;2023-08-20T08:08:42;100730.63;;;26.39;70.01
77227;BME280;66234;47.642;19.144;2023-08-20T08:11:45;100731.34;;;26.44;69.48
77227;BME280;66234;47.642;19.144;2023-08-20T08:14:47;100733.94;;;26.54;68.20
77227;BME280;66234;47.642;19.144;2023-08-20T08:17:50;100736.53;;;26.64;67.79
77227;BME280;66234;47.642;19.144;2023-08-20T08:20:53;100743.66;;;26.79;67.46
77227;BME280;66234;47.642;19.144;2023-08-20T08:23:56;100742.47;;;26.98;67.44
77227;BME280;66234;47.642;19.144;2023-08-20T08:26:59;100744.66;;;27.15;66.54
77227;BME280;66234;47.642;19.144;2023-08-20T08:30:01;100733.88;;;27.32;65.51
77227;BME280;66234;47.642;19.144;2023-08-20T08:33:04;100745.28;;;27.39;63.64
77227;BME280;66234;47.642;19.144;2023-08-20T08:36:07;100747.91;;;27.44;65.38
77227;BME280;66234;47.642;19.144;2023-08-20T08:39:09;100738.66;;;27.54;66.92
77227;BME280;66234;47.642;19.144;2023-08-20T08:42:12;100737.31;;;27.51;66.88
77227;BME280;66234;47.642;19.144;2023-08-20T08:45:18;100735.59;;;27.55;65.40
77227;BME280;66234;47.642;19.144;2023-08-20T08:48:22;100739.66;;;27.58;66.15
77227;BME280;66234;47.642;19.144;2023-08-20T08:51:25;100733.09;;;27.94;62.73
77227;BME280;66234;47.642;19.144;2023-08-20T08:54:29;100725.72;;;28.03;64.29
77227;BME280;66234;47.642;19.144;2023-08-20T08:57:32;100734.78;;;28.04;64.16
77227;BME280;66234;47.642;19.144;2023-08-20T09:00:35;100733.63;;;28.18;63.68
77227;BME280;66234;47.642;19.144;2023-08-20T09:03:37;100733.47;;;28.23;64.54
77227;BME280;66234;47.642;19.144;2023-08-20T09:06:48;100731.19;;;28.17;62.83
77227;BME280;66234;47.642;19.144;2023-08-20T09:09:50;100737.88;;;28.24;62.41
77227;BME280;66234;47.642;19.144;2023-08-20T09:12:54;100738.06;;;28.28;63.00
77227;BME280;66234;47.642;19.144;2023-08-20T09:15:59;100736.00;;;28.33;63.28
77227;BME280;66234;47.642;19.144;2023-08-20T09:19:02;100728.38;;;28.30;63.32
77227;BME280;66234;47.642;19.144;2023-08-20T09:22:05;100733.91;;;28.52;63.23
77227;BME280;66234;47.642;19.144;2023-08-20T09:25:15;100734.56;;;28.58;61.39
77227;BME280;66234;47.642;19.144;2023-08-20T09:28:19;100744.94;;;28.61;61.21
77227;BME280;66234;47.642;19.144;2023-08-20T09:31:36;100740.47;;;28.65;61.06
77227;BME280;66234;47.642;19.144;2023-08-20T09:34:41;100735.84;;;28.82;58.44
77227;BME280;66234;47.642;19.144;2023-08-20T09:37:44;100734.22;;;29.12;54.58
77227;BME280;66234;47.642;19.144;2023-08-20T09:40:49;100725.34;;;29.15;51.20
77227;BME280;66234;47.642;19.144;2023-08-20T09:43:56;100726.16;;;29.24;52.56
77227;BME280;66234;47.642;19.144;2023-08-20T09:46:59;100722.38;;;29.51;51.53
77227;BME280;66234;47.642;19.144;2023-08-20T09:50:03;100724.47;;;29.54;51.54
77227;BME280;66234;47.642;19.144;2023-08-20T09:53:17;100725.47;;;29.58;52.44
77227;BME280;66234;47.642;19.144;2023-08-20T09:56:36;100725.53;;;29.75;47.62
77227;BME280;66234;47.642;19.144;2023-08-20T09:59:41;100725.53;;;29.75;50.73
77227;BME280;66234;47.642;19.144;2023-08-20T10:02:44;100718.19;;;29.70;52.86
77227;BME280;66234;47.642;19.144;2023-08-20T10:05:49;100719.53;;;29.73;51.33
77227;BME280;66234;47.642;19.144;2023-08-20T10:08:53;100719.16;;;29.66;51.10
77227;BME280;66234;47.642;19.144;2023-08-20T10:11:56;100714.19;;;29.76;50.43
77227;BME280;66234;47.642;19.144;2023-08-20T10:14:59;100705.09;;;30.01;50.40
77227;BME280;66234;47.642;19.144;2023-08-20T10:18:03;100707.53;;;30.20;51.18
77227;BME280;66234;47.642;19.144;2023-08-20T10:21:05;100713.69;;;30.17;50.43
77227;BME280;66234;47.642;19.144;2023-08-20T10:24:17;100705.13;;;30.27;48.50
77227;BME280;66234;47.642;19.144;2023-08-20T10:27:27;100701.19;;;30.45;43.72
77227;BME280;66234;47.642;19.144;2023-08-20T10:30:30;100706.50;;;30.67;43.09
77227;BME280;66234;47.642;19.144;2023-08-20T10:33:34;100702.25;;;30.78;43.38
77227;BME280;66234;47.642;19.144;2023-08-20T10:36:41;100711.81;;;30.89;43.82
77227;BME280;66234;47.642;19.144;2023-08-20T10:39:53;100712.59;;;30.98;43.53
77227;BME280;66234;47.642;19.144;2023-08-20T10:43:01;100710.59;;;31.07;41.44
77227;BME280;66234;47.642;19.144;2023-08-20T10:49:16;100696.59;;;31.12;43.08
77227;BME280;66234;47.642;19.144;2023-08-20T10:52:23;100689.75;;;31.10;43.76
77227;BME280;66234;47.642;19.144;2023-08-20T10:55:26;100699.31;;;31.21;43.57
77227;BME280;66234;47.642;19.144;2023-08-20T10:58:30;100694.09;;;31.19;44.54
77227;BME280;66234;47.642;19.144;2023-08-20T11:01:33;100692.00;;;31.16;44.97
77227;BME280;66234;47.642;19.144;2023-08-20T11:04:37;100689.06;;;31.50;44.15
77227;BME280;66234;47.642;19.144;2023-08-20T11:07:40;100684.63;;;31.58;43.49
77227;BME280;66234;47.642;19.144;2023-08-20T11:10:44;100682.59;;;31.67;43.41
77227;BME280;66234;47.642;19.144;2023-08-20T11:13:47;100687.41;;;31.78;45.12
77227;BME280;66234;47.642;19.144;2023-08-20T11:16:50;100689.84;;;31.80;45.01
77227;BME280;66234;47.642;19.144;2023-08-20T11:19:54;100679.44;;;31.77;45.10
77227;BME280;66234;47.642;19.144;2023-08-20T11:23:10;100669.38;;;32.14;42.65
77227;BME280;66234;47.642;19.144;2023-08-20T11:26:14;100678.66;;;31.97;43.41
77227;BME280;66234;47.642;19.144;2023-08-20T11:29:17;100673.47;;;31.96;43.66
77227;BME280;66234;47.642;19.144;2023-08-20T11:32:25;100667.41;;;32.35;43.44
77227;BME280;66234;47.642;19.144;2023-08-20T11:35:28;100672.31;;;32.29;44.65
77227;BME280;66234;47.642;19.144;2023-08-20T11:38:31;100665.59;;;32.39;43.53
77227;BME280;66234;47.642;19.144;2023-08-20T11:41:39;100672.69;;;32.72;43.96
77227;BME280;66234;47.642;19.144;2023-08-20T11:44:43;100661.03;;;32.55;43.30
77227;BME280;66234;47.642;19.144;2023-08-20T11:47:46;100653.19;;;32.69;43.70
77227;BME280;66234;47.642;19.144;2023-08-20T11:50:50;100652.19;;;33.21;42.41
77227;BME280;66234;47.642;19.144;2023-08-20T11:53:53;100650.31;;;33.50;43.13
77227;BME280;66234;47.642;19.144;2023-08-20T11:57:02;100646.56;;;33.70;40.88
77227;BME280;66234;47.642;19.144;2023-08-20T12:00:06;100645.81;;;33.97;41.52
77227;BME280;66234;47.642;19.144;2023-08-20T12:03:17;100651.00;;;33.98;40.33
77227;BME280;66234;47.642;19.144;2023-08-20T12:06:21;100651.81;;;33.87;40.85
77227;BME280;66234;47.642;19.144;2023-08-20T12:09:27;100647.50;;;34.29;39.94
77227;BME280;66234;47.642;19.144;2023-08-20T12:12:30;100643.53;;;34.57;40.51
77227;BME280;66234;47.642;19.144;2023-08-20T12:15:32;100642.56;;;35.47;38.92
77227;BME280;66234;47.642;19.144;2023-08-20T12:18:34;100634.00;;;35.36;37.96
77227;BME280;66234;47.642;19.144;2023-08-20T12:21:37;100636.28;;;35.84;38.16
77227;BME280;66234;47.642;19.144;2023-08-20T12:24:40;100635.94;;;35.70;37.27
77227;BME280;66234;47.642;19.144;2023-08-20T12:27:43;100627.16;;;36.06;37.14
77227;BME280;66234;47.642;19.144;2023-08-20T12:30:45;100627.91;;;37.16;35.51
77227;BME280;66234;47.642;19.144;2023-08-20T12:33:48;100629.56;;;37.73;34.23
77227;BME280;66234;47.642;19.144;2023-08-20T12:36:51;100629.22;;;37.48;34.97
77227;BME280;66234;47.642;19.144;2023-08-20T12:39:54;100628.75;;;38.06;32.83
77227;BME280;66234;47.642;19.144;2023-08-20T12:42:56;100623.09;;;37.99;33.05
77227;BME280;66234;47.642;19.144;2023-08-20T12:45:59;100619.56;;;37.72;33.70
77227;BME280;66234;47.642;19.144;2023-08-20T12:49:02;100621.56;;;38.85;31.73
77227;BME280;66234;47.642;19.144;2023-08-20T12:52:04;100616.38;;;38.83;31.59
77227;BME280;66234;47.642;19.144;2023-08-20T12:55:07;100616.56;;;37.87;32.17
77227;BME280;66234;47.642;19.144;2023-08-20T12:58:10;100610.19;;;38.20;31.13
77227;BME280;66234;47.642;19.144;2023-08-20T13:01:13;100610.72;;;37.37;32.22
77227;BME280;66234;47.642;19.144;2023-08-20T13:04:15;100607.03;;;37.59;30.83
77227;BME280;66234;47.642;19.144;2023-08-20T13:07:18;100604.22;;;38.62;29.70
77227;BME280;66234;47.642;19.144;2023-08-20T13:10:21;100608.34;;;37.98;29.39
77227;BME280;66234;47.642;19.144;2023-08-20T13:13:25;100603.25;;;38.07;30.03
77227;BME280;66234;47.642;19.144;2023-08-20T13:16:29;100597.28;;;38.49;29.20
77227;BME280;66234;47.642;19.144;2023-08-20T13:19:32;100596.56;;;37.82;29.39
77227;BME280;66234;47.642;19.144;2023-08-20T13:22:34;100593.63;;;38.41;27.57
77227;BME280;66234;47.642;19.144;2023-08-20T13:25:38;100597.72;;;39.66;26.45
77227;BME280;66234;47.642;19.144;2023-08-20T13:28:40;100593.06;;;38.65;27.66
77227;BME280;66234;47.642;19.144;2023-08-20T13:31:43;100595.34;;;39.00;27.14
77227;BME280;66234;47.642;19.144;2023-08-20T13:34:46;100595.84;;;39.16;27.22
77227;BME280;66234;47.642;19.144;2023-08-20T13:37:48;100591.47;;;39.22;27.12
77227;BME280;66234;47.642;19.144;2023-08-20T13:40:51;100586.03;;;38.42;27.36
77227;BME280;66234;47.642;19.144;2023-08-20T13:43:53;100586.16;;;38.52;27.71
77227;BME280;66234;47.642;19.144;2023-08-20T13:46:56;100591.16;;;37.96;28.23
77227;BME280;66234;47.642;19.144;2023-08-20T13:49:59;100581.22;;;38.82;27.36
77227;BME280;66234;47.642;19.144;2023-08-20T13:53:01;100583.16;;;39.36;26.78
77227;BME280;66234;47.642;19.144;2023-08-20T13:56:05;100574.41;;;38.80;26.15
77227;BME280;66234;47.642;19.144;2023-08-20T13:59:09;100574.50;;;38.97;27.31
77227;BME280;66234;47.642;19.144;2023-08-20T14:02:11;100569.69;;;38.91;27.63
77227;BME280;66234;47.642;19.144;2023-08-20T14:05:14;100566.91;;;38.44;26.83
77227;BME280;66234;47.642;19.144;2023-08-20T14:08:17;100569.13;;;39.25;25.91
77227;BME280;66234;47.642;19.144;2023-08-20T14:11:20;100560.25;;;38.55;26.83
77227;BME280;66234;47.642;19.144;2023-08-20T14:14:22;100572.44;;;38.84;27.98
77227;BME280;66234;47.642;19.144;2023-08-20T14:17:25;100568.03;;;38.86;26.88
77227;BME280;66234;47.642;19.144;2023-08-20T14:20:28;100557.38;;;38.99;27.33
77227;BME280;66234;47.642;19.144;2023-08-20T14:23:31;100557.69;;;38.90;27.35
77227;BME280;66234;47.642;19.144;2023-08-20T14:26:33;100561.03;;;39.10;26.93
77227;BME280;66234;47.642;19.144;2023-08-20T14:29:36;100549.31;;;39.59;25.47
77227;BME280;66234;47.642;19.144;2023-08-20T14:32:38;100557.22;;;38.78;27.06
77227;BME280;66234;47.642;19.144;2023-08-20T14:35:42;100549.34;;;39.69;26.86
77227;BME280;66234;47.642;19.144;2023-08-20T14:38:45;100542.28;;;40.35;26.16
77227;BME280;66234;47.642;19.144;2023-08-20T14:41:47;100548.97;;;39.81;26.71
77227;BME280;66234;47.642;19.144;2023-08-20T14:44:50;100541.88;;;40.08;26.54
77227;BME280;66234;47.642;19.144;2023-08-20T14:47:52;100546.97;;;39.78;26.29
77227;BME280;66234;47.642;19.144;2023-08-20T14:50:55;100539.53;;;39.21;27.12
77227;BME280;66234;47.642;19.144;2023-08-20T14:53:58;100537.06;;;40.19;26.57
77227;BME280;66234;47.642;19.144;2023-08-20T14:57:01;100543.41;;;39.85;27.07
77227;BME280;66234;47.642;19.144;2023-08-20T15:00:04;100546.66;;;40.01;26.53
77227;BME280;66234;47.642;19.144;2023-08-20T15:03:10;100540.66;;;40.23;26.97
77227;BME280;66234;47.642;19.144;2023-08-20T15:06:12;100546.88;;;39.50;28.35
77227;BME280;66234;47.642;19.144;2023-08-20T15:09:16;100542.97;;;39.76;28.01
77227;BME280;66234;47.642;19.144;2023-08-20T15:12:19;100545.81;;;39.93;27.58
77227;BME280;66234;47.642;19.144;2023-08-20T15:15:23;100541.19;;;38.71;29.60
77227;BME280;66234;47.642;19.144;2023-08-20T15:18:26;100547.28;;;38.87;29.21
77227;BME280;66234;47.642;19.144;2023-08-20T15:21:29;100541.28;;;38.85;29.24
77227;BME280;66234;47.642;19.144;2023-08-20T15:24:32;100535.03;;;38.52;29.70
77227;BME280;66234;47.642;19.144;2023-08-20T15:27:34;100535.59;;;39.36;29.38
77227;BME280;66234;47.642;19.144;2023-08-20T15:30:37;100533.44;;;39.01;30.20
77227;BME280;66234;47.642;19.144;2023-08-20T15:33:40;100526.41;;;39.39;29.42
77227;BME280;66234;47.642;19.144;2023-08-20T15:36:42;100534.50;;;38.83;30.06
77227;BME280;66234;47.642;19.144;2023-08-20T15:39:45;100532.81;;;38.71;30.89
77227;BME280;66234;47.642;19.144;2023-08-20T15:42:48;100532.66;;;39.11;30.27
77227;BME280;66234;47.642;19.144;2023-08-20T15:45:50;100525.25;;;38.75;30.69
77227;BME280;66234;47.642;19.144;2023-08-20T15:48:53;100531.03;;;39.00;30.51
77227;BME280;66234;47.642;19.144;2023-08-20T15:51:55;100528.34;;;38.60;31.53
77227;BME280;66234;47.642;19.144;2023-08-20T15:54:58;100527.34;;;38.38;32.47
77227;BME280;66234;47.642;19.144;2023-08-20T15:58:01;100521.19;;;39.30;31.29